Terminal Aerodrome Forecast
Issued by NWS

Home | Current Version | Previous Version | Text Only | Print | Product List | Glossary On
Versions: 1 2 3 4 5 6 7 8 9 10 11 12 13 14 15 16 17 18 19 20
000
FTUS46 KPDT 260536
TAFRDM
TAF
KRDM 260536Z 2606/2706 29007KT P6SM VCSH BKN035 OVC070
     FM260900 28008KT P6SM FEW028 SCT070 BKN150
     FM261400 29006KT P6SM FEW035
     FM261900 32012G20KT P6SM SKC
     FM270300 31009KT P6SM SKC=

USA.gov is the U.S. government's official web portal to all federal, state and local government web resources and services.